createdAt,value
2019-03-12T00:00:56.869Z,2.41
2019-03-12T00:01:56.843Z,2.46
2019-03-12T00:02:56.883Z,2.43
2019-03-12T00:03:56.818Z,2.50
2019-03-12T00:04:56.870Z,2.46
2019-03-12T00:05:56.796Z,2.34
2019-03-12T00:06:56.799Z,2.47
2019-03-12T00:07:56.804Z,2.47
2019-03-12T00:08:56.871Z,2.43
2019-03-12T00:09:56.747Z,2.36
2019-03-12T00:10:56.729Z,2.50
2019-03-12T00:11:56.749Z,2.44
2019-03-12T00:12:56.768Z,2.44
2019-03-12T00:13:56.873Z,2.47
2019-03-12T00:14:56.731Z,2.50
2019-03-12T00:15:56.706Z,2.54
2019-03-12T00:16:56.690Z,2.50
2019-03-12T00:17:56.671Z,2.41
2019-03-12T00:18:56.659Z,2.47
2019-03-12T00:19:56.683Z,2.46
2019-03-12T00:20:56.641Z,2.41
2019-03-12T00:21:56.638Z,2.43
2019-03-12T00:22:56.615Z,2.50
2019-03-12T00:23:56.610Z,2.59
2019-03-12T00:24:56.625Z,2.59
2019-03-12T00:25:56.663Z,2.62
2019-03-12T00:26:56.585Z,2.52
2019-03-12T00:27:56.582Z,2.59
2019-03-12T00:28:56.536Z,2.61
2019-03-12T00:29:56.537Z,2.65
2019-03-12T00:30:56.562Z,2.65
2019-03-12T00:31:56.545Z,2.59
2019-03-12T00:32:56.511Z,2.51
2019-03-12T00:33:56.507Z,2.59
2019-03-12T00:34:56.494Z,2.58
2019-03-12T00:35:56.537Z,2.44
2019-03-12T00:36:56.453Z,2.41
2019-03-12T00:37:56.449Z,2.34
2019-03-12T00:38:56.439Z,2.39
2019-03-12T00:39:56.450Z,2.39
2019-03-12T00:40:56.508Z,2.47
2019-03-12T00:41:56.434Z,2.39
2019-03-12T00:42:56.482Z,2.36
2019-03-12T00:43:56.516Z,2.44
2019-03-12T00:44:56.404Z,2.43
2019-03-12T00:45:56.390Z,2.36
2019-03-12T00:46:56.361Z,2.43
2019-03-12T00:47:56.403Z,2.41
2019-03-12T00:48:56.375Z,2.40
2019-03-12T00:49:56.362Z,2.46
2019-03-12T00:50:56.411Z,2.41
2019-03-12T00:51:56.420Z,2.44
2019-03-12T00:52:56.435Z,2.39
2019-03-12T00:53:56.309Z,2.41
2019-03-12T00:54:56.403Z,2.44
2019-03-12T00:55:56.348Z,2.51
2019-03-12T00:56:56.319Z,2.54
2019-03-12T00:57:56.261Z,2.57
2019-03-12T00:58:56.285Z,2.50
2019-03-12T00:59:56.635Z,2.46
2019-03-12T01:00:56.260Z,2.59
2019-03-12T01:01:56.367Z,2.51
2019-03-12T01:02:56.204Z,2.59
2019-03-12T01:03:56.317Z,2.61
2019-03-12T01:04:56.218Z,2.64
2019-03-12T01:05:56.298Z,2.65
2019-03-12T01:06:56.140Z,2.59
2019-03-12T01:07:56.147Z,2.59
2019-03-12T01:08:56.174Z,2.64
2019-03-12T01:09:56.152Z,2.64
2019-03-12T01:10:56.119Z,2.70
2019-03-12T01:11:56.142Z,2.58
2019-03-12T01:12:56.128Z,2.65
2019-03-12T01:13:56.066Z,2.70
2019-03-12T01:14:56.167Z,2.72
2019-03-12T01:15:56.106Z,2.69
2019-03-12T01:16:56.178Z,2.68
2019-03-12T01:17:56.195Z,2.69
2019-03-12T01:18:56.032Z,2.70
2019-03-12T01:19:56.015Z,2.69
2019-03-12T01:20:56.103Z,2.68
2019-03-12T01:21:55.989Z,2.73
2019-03-12T01:22:56.033Z,2.75
2019-03-12T01:23:56.020Z,2.76
2019-03-12T01:24:55.958Z,2.79
2019-03-12T01:25:55.953Z,2.77
2019-03-12T01:26:55.940Z,2.73
2019-03-12T01:27:55.957Z,2.68
2019-03-12T01:28:55.969Z,2.75
2019-03-12T01:29:55.917Z,2.75
2019-03-12T01:30:55.885Z,2.75
2019-03-12T01:31:55.880Z,2.73
2019-03-12T01:32:55.895Z,2.75
2019-03-12T01:33:55.899Z,2.77
2019-03-12T01:34:55.839Z,2.77
2019-03-12T01:35:55.907Z,2.80
2019-03-12T01:36:55.837Z,2.72
2019-03-12T01:37:55.849Z,2.68
2019-03-12T01:38:55.940Z,2.72
2019-03-12T01:39:55.884Z,2.73
2019-03-12T01:40:55.804Z,2.73
2019-03-12T01:41:55.791Z,2.76
2019-03-12T01:42:55.847Z,2.83
2019-03-12T01:43:55.799Z,2.88
2019-03-12T01:44:55.805Z,2.88
2019-03-12T01:45:55.825Z,2.88
2019-03-12T01:46:55.741Z,2.94
2019-03-12T01:47:55.748Z,2.95
2019-03-12T01:48:55.725Z,2.90
2019-03-12T01:49:55.737Z,2.88
2019-03-12T01:50:55.860Z,2.90
2019-03-12T01:51:55.733Z,3.01
2019-03-12T01:52:55.758Z,3.00
2019-03-12T01:53:55.790Z,3.03
2019-03-12T01:54:55.641Z,3.06
2019-03-12T01:55:55.947Z,3.08
2019-03-12T01:56:55.656Z,3.03
2019-03-12T01:57:55.616Z,3.01
2019-03-12T01:58:55.606Z,3.05
2019-03-12T01:59:55.594Z,3.05
2019-03-12T02:00:55.617Z,3.01
2019-03-12T02:01:55.626Z,3.03
2019-03-12T02:02:55.589Z,3.12
2019-03-12T02:03:55.566Z,3.03
2019-03-12T02:04:55.630Z,3.08
2019-03-12T02:05:55.556Z,3.12
2019-03-12T02:06:57.523Z,3.11
2019-03-12T02:07:55.640Z,3.16
2019-03-12T02:08:55.525Z,3.13
2019-03-12T02:09:55.517Z,3.18
2019-03-12T02:10:55.547Z,3.16
2019-03-12T02:11:55.459Z,3.29
2019-03-12T02:12:55.491Z,3.19
2019-03-12T02:13:55.499Z,3.26
2019-03-12T02:14:55.507Z,3.21
2019-03-12T02:15:55.536Z,3.21
2019-03-12T02:16:55.448Z,3.22
2019-03-12T02:17:55.453Z,3.24
2019-03-12T02:18:55.433Z,3.30
2019-03-12T02:19:55.454Z,3.30
2019-03-12T02:20:55.430Z,3.31
2019-03-12T02:21:55.437Z,3.26
2019-03-12T02:22:55.404Z,3.27
2019-03-12T02:23:55.462Z,3.26
2019-03-12T02:24:55.430Z,3.27
2019-03-12T02:25:55.388Z,3.27
2019-03-12T02:26:55.424Z,3.29
2019-03-12T02:27:55.403Z,3.31
2019-03-12T02:28:55.349Z,3.34
2019-03-12T02:29:55.324Z,3.34
2019-03-12T02:30:55.329Z,3.40
2019-03-12T02:31:55.303Z,3.41
2019-03-12T02:32:55.402Z,3.36
2019-03-12T02:33:55.309Z,3.40
2019-03-12T02:34:55.387Z,3.46
2019-03-12T02:35:55.289Z,3.40
2019-03-12T02:36:55.271Z,3.40
2019-03-12T02:37:55.287Z,3.48
2019-03-12T02:38:55.245Z,3.46
2019-03-12T02:39:55.215Z,3.49
2019-03-12T02:40:55.223Z,3.46
2019-03-12T02:41:55.161Z,3.43
2019-03-12T02:42:55.254Z,3.34
2019-03-12T02:43:55.171Z,3.49
2019-03-12T02:44:55.174Z,3.48
2019-03-12T02:45:55.177Z,3.52
2019-03-12T02:46:55.119Z,3.45
2019-03-12T02:47:55.149Z,3.45
2019-03-12T02:48:55.093Z,3.41
2019-03-12T02:49:55.120Z,3.46
2019-03-12T02:50:55.095Z,3.49
2019-03-12T02:51:55.203Z,3.50
2019-03-12T02:52:55.053Z,3.53
2019-03-12T02:53:55.063Z,3.52
2019-03-12T02:54:55.032Z,3.56
2019-03-12T02:55:55.048Z,3.55
2019-03-12T02:56:55.124Z,3.53
2019-03-12T02:57:55.106Z,3.50
2019-03-12T02:58:55.000Z,3.53
2019-03-12T02:59:55.010Z,3.52
2019-03-12T03:00:55.013Z,3.58
2019-03-12T03:01:55.049Z,3.52
2019-03-12T03:02:55.037Z,3.52
2019-03-12T03:04:05.400Z,3.55
2019-03-12T03:04:54.929Z,3.59
2019-03-12T03:05:54.894Z,3.56
2019-03-12T03:06:54.907Z,3.59
2019-03-12T03:07:54.903Z,3.63
2019-03-12T03:08:54.905Z,3.58
2019-03-12T03:09:54.924Z,3.70
2019-03-12T03:10:54.907Z,3.61
2019-03-12T03:11:54.839Z,3.55
2019-03-12T03:12:54.902Z,3.73
2019-03-12T03:13:54.904Z,3.71
2019-03-12T03:14:54.866Z,3.70
2019-03-12T03:15:54.955Z,3.63
2019-03-12T03:16:54.862Z,3.59
2019-03-12T03:17:54.806Z,3.66
2019-03-12T03:18:54.812Z,3.70
2019-03-12T03:19:54.800Z,3.64
2019-03-12T03:20:54.778Z,3.64
2019-03-12T03:21:54.893Z,3.64
2019-03-12T03:22:54.766Z,3.74
2019-03-12T03:23:54.755Z,3.64
2019-03-12T03:24:54.713Z,3.68
2019-03-12T03:25:54.918Z,3.66
2019-03-12T03:26:54.789Z,3.70
2019-03-12T03:27:54.844Z,3.71
2019-03-12T03:28:54.731Z,3.78
2019-03-12T03:29:54.655Z,3.73
2019-03-12T03:30:54.663Z,3.77
2019-03-12T03:31:55.560Z,3.77
2019-03-12T03:32:54.668Z,3.77
2019-03-12T03:33:54.763Z,3.76
2019-03-12T03:34:54.634Z,3.71
2019-03-12T03:35:54.723Z,3.76
2019-03-12T03:36:54.638Z,3.73
2019-03-12T03:37:54.623Z,3.76
2019-03-12T03:38:54.645Z,3.77
2019-03-12T03:39:54.590Z,3.74
2019-03-12T03:40:54.581Z,3.77
2019-03-12T03:41:54.563Z,3.77
2019-03-12T03:42:54.607Z,3.63
2019-03-12T03:43:54.579Z,3.78
2019-03-12T03:44:54.592Z,3.77
2019-03-12T03:45:54.634Z,3.73
2019-03-12T03:46:54.550Z,3.71
2019-03-12T03:47:54.551Z,3.82
2019-03-12T03:48:54.506Z,3.71
2019-03-12T03:49:54.481Z,3.78
2019-03-12T03:50:54.472Z,3.71
2019-03-12T03:51:55.386Z,3.78
2019-03-12T03:52:54.508Z,3.70
2019-03-12T03:53:54.442Z,3.73
2019-03-12T03:54:54.442Z,3.73
2019-03-12T03:55:54.421Z,3.78
2019-03-12T03:56:54.394Z,3.78
2019-03-12T03:57:54.416Z,3.85
2019-03-12T03:58:54.939Z,3.74
2019-03-12T03:59:54.423Z,3.78
2019-03-12T04:00:54.421Z,3.81
2019-03-12T04:01:54.869Z,3.77
2019-03-12T04:02:54.437Z,3.78
2019-03-12T04:03:54.484Z,3.77
2019-03-12T04:04:54.300Z,3.78
2019-03-12T04:05:54.284Z,3.76
2019-03-12T04:06:54.350Z,3.78
2019-03-12T04:07:54.259Z,3.82
2019-03-12T04:08:54.298Z,3.81
2019-03-12T04:09:54.321Z,3.82
2019-03-12T04:10:54.388Z,3.78
2019-03-12T04:11:54.303Z,3.73
2019-03-12T04:12:54.218Z,3.76
2019-03-12T04:13:54.287Z,3.82
2019-03-12T04:14:54.216Z,3.81
2019-03-12T04:15:54.194Z,3.81
2019-03-12T04:16:54.175Z,3.71
2019-03-12T04:17:54.167Z,3.78
2019-03-12T04:18:54.215Z,3.81
2019-03-12T04:19:54.214Z,3.78
2019-03-12T04:20:54.322Z,3.71
2019-03-12T04:21:54.141Z,3.73
2019-03-12T04:22:54.139Z,3.78
2019-03-12T04:23:54.126Z,3.82
2019-03-12T04:24:54.146Z,3.74
2019-03-12T04:25:54.095Z,3.77
2019-03-12T04:26:54.138Z,3.77
2019-03-12T04:27:54.075Z,3.78
2019-03-12T04:28:54.134Z,3.78
2019-03-12T04:29:54.082Z,3.71
2019-03-12T04:30:54.081Z,3.77
2019-03-12T04:31:54.114Z,3.77
2019-03-12T04:32:54.098Z,3.71
2019-03-12T04:33:54.015Z,3.71
2019-03-12T04:34:54.087Z,3.77
2019-03-12T04:35:53.983Z,3.78
2019-03-12T04:36:54.038Z,3.78
2019-03-12T04:37:53.977Z,3.77
2019-03-12T04:38:54.132Z,3.70
2019-03-12T04:39:54.028Z,3.76
2019-03-12T04:40:53.952Z,3.67
2019-03-12T04:41:53.980Z,3.73
2019-03-12T04:42:53.926Z,3.70
2019-03-12T04:43:53.907Z,3.70
2019-03-12T04:44:53.909Z,3.73
2019-03-12T04:45:53.889Z,3.71
2019-03-12T04:46:53.859Z,3.71
2019-03-12T04:47:53.871Z,3.74
2019-03-12T04:48:53.986Z,3.74
2019-03-12T04:49:53.815Z,3.70
2019-03-12T04:50:53.852Z,3.68
2019-03-12T04:51:54.371Z,3.61
2019-03-12T04:52:53.814Z,3.61
2019-03-12T04:53:53.780Z,3.64
2019-03-12T04:54:53.773Z,3.53
2019-03-12T04:55:53.774Z,3.59
2019-03-12T04:56:53.770Z,3.61
2019-03-12T04:57:53.856Z,3.58
2019-03-12T04:58:53.727Z,3.73
2019-03-12T04:59:53.783Z,3.64
2019-03-12T05:00:54.376Z,3.71
2019-03-12T05:01:53.734Z,3.71
2019-03-12T05:02:53.717Z,3.73
2019-03-12T05:03:53.707Z,3.64
2019-03-12T05:04:53.722Z,3.66
2019-03-12T05:05:53.696Z,3.71
2019-03-12T05:06:54.548Z,3.77
2019-03-12T05:07:53.675Z,3.71
2019-03-12T05:08:53.637Z,3.77
2019-03-12T05:09:53.619Z,3.78
2019-03-12T05:10:53.593Z,3.77
2019-03-12T05:11:53.626Z,3.66
2019-03-12T05:12:53.616Z,3.61
2019-03-12T05:13:53.644Z,3.59
2019-03-12T05:14:53.608Z,3.71
2019-03-12T05:15:53.620Z,3.71
2019-03-12T05:16:53.564Z,3.73
2019-03-12T05:17:53.559Z,3.71
2019-03-12T05:18:53.550Z,3.67
2019-03-12T05:19:53.554Z,3.67
2019-03-12T05:20:53.566Z,3.74
2019-03-12T05:21:53.523Z,3.71
2019-03-12T05:22:54.376Z,3.73
2019-03-12T05:23:53.505Z,3.68
2019-03-12T05:24:53.600Z,3.73
2019-03-12T05:25:54.399Z,3.70
2019-03-12T05:26:53.471Z,3.55
2019-03-12T05:27:53.522Z,3.67
2019-03-12T05:28:56.020Z,3.59
2019-03-12T05:29:54.378Z,3.59
2019-03-12T05:30:53.411Z,3.64
2019-03-12T05:31:53.440Z,3.61
2019-03-12T05:32:53.501Z,3.63
2019-03-12T05:33:53.375Z,3.61
2019-03-12T05:34:53.387Z,3.59
2019-03-12T05:35:53.363Z,3.59
2019-03-12T05:36:54.097Z,3.55
2019-03-12T05:37:53.388Z,3.59
2019-03-12T05:38:54.622Z,3.49
2019-03-12T05:39:53.301Z,3.61
2019-03-12T05:40:54.325Z,3.63
2019-03-12T05:41:53.323Z,3.52
2019-03-12T05:42:53.289Z,3.58
2019-03-12T05:43:54.159Z,3.50
2019-03-12T05:44:55.542Z,3.49
2019-03-12T05:45:53.322Z,3.52
2019-03-12T05:46:53.243Z,3.55
2019-03-12T05:47:53.265Z,3.53
2019-03-12T05:48:53.206Z,3.52
2019-03-12T05:49:53.984Z,3.49
2019-03-12T05:50:53.269Z,3.46
2019-03-12T05:51:56.393Z,3.55
2019-03-12T05:52:53.195Z,3.61
2019-03-12T05:53:53.153Z,3.68
2019-03-12T05:54:53.891Z,3.66
2019-03-12T05:55:53.153Z,3.59
2019-03-12T05:56:53.882Z,3.59
2019-03-12T05:57:54.183Z,3.59
2019-03-12T05:58:53.145Z,3.61
2019-03-12T05:59:53.129Z,3.61
2019-03-12T06:00:53.201Z,3.61
2019-03-12T06:01:53.215Z,3.63
2019-03-12T06:02:53.097Z,3.61
2019-03-12T06:03:53.092Z,3.61
2019-03-12T06:04:53.036Z,3.61
2019-03-12T06:05:53.059Z,3.61
2019-03-12T06:06:53.077Z,3.58
2019-03-12T06:07:55.413Z,3.59
2019-03-12T06:08:53.044Z,3.63
2019-03-12T06:09:53.052Z,3.64
2019-03-12T06:10:53.014Z,3.63
2019-03-12T06:11:52.989Z,3.56
2019-03-12T06:12:53.890Z,3.61
2019-03-12T06:13:54.919Z,3.63
2019-03-12T06:14:52.941Z,3.63
2019-03-12T06:15:53.317Z,3.58
2019-03-12T06:16:52.920Z,3.67
2019-03-12T06:17:52.904Z,3.67
2019-03-12T06:18:52.905Z,3.56
2019-03-12T06:19:52.937Z,3.63
2019-03-12T06:20:53.551Z,3.63
2019-03-12T06:21:52.857Z,3.59
2019-03-12T06:22:52.893Z,3.70
2019-03-12T06:23:52.881Z,3.73
2019-03-12T06:24:52.862Z,3.68
2019-03-12T06:25:52.857Z,3.66
2019-03-12T06:26:53.984Z,3.77
2019-03-12T06:27:52.834Z,3.71
2019-03-12T06:28:52.788Z,3.76
2019-03-12T06:29:52.786Z,3.71
2019-03-12T06:30:53.384Z,3.81
2019-03-12T06:31:52.767Z,3.81
2019-03-12T06:32:52.746Z,3.81
2019-03-12T06:33:52.726Z,3.76
2019-03-12T06:34:52.755Z,3.88
2019-03-12T06:35:54.350Z,3.86
2019-03-12T06:36:52.726Z,3.92
2019-03-12T06:37:53.391Z,3.88
2019-03-12T06:38:53.089Z,4.10
2019-03-12T06:39:52.737Z,3.95
2019-03-12T06:41:03.105Z,4.09
2019-03-12T06:41:53.011Z,4.06
2019-03-12T06:42:52.663Z,4.00
2019-03-12T06:43:52.615Z,3.94
2019-03-12T06:44:52.676Z,4.07
2019-03-12T06:45:52.708Z,4.09
2019-03-12T06:46:52.633Z,4.07
2019-03-12T06:47:53.484Z,4.10
2019-03-12T06:48:52.608Z,4.13
2019-03-12T06:49:52.611Z,4.07
2019-03-12T06:50:52.599Z,4.02
2019-03-12T06:51:52.551Z,3.96
2019-03-12T06:52:52.535Z,4.06
2019-03-12T06:53:52.528Z,4.02
2019-03-12T06:54:52.528Z,4.00
2019-03-12T06:55:52.531Z,4.00
2019-03-12T06:56:52.514Z,4.00
2019-03-12T06:57:53.474Z,4.10
2019-03-12T06:58:52.465Z,4.00
2019-03-12T06:59:52.481Z,4.00
2019-03-12T07:00:53.389Z,4.04
2019-03-12T07:01:52.548Z,4.04
2019-03-12T07:02:53.043Z,4.12
2019-03-12T07:03:52.419Z,4.10
2019-03-12T07:04:52.499Z,4.13
2019-03-12T07:05:52.411Z,4.14
2019-03-12T07:06:52.475Z,4.16
2019-03-12T07:07:52.465Z,4.09
2019-03-12T07:08:52.963Z,4.21
2019-03-12T07:09:52.920Z,4.12
2019-03-12T07:10:53.431Z,4.12
2019-03-12T07:11:52.895Z,4.09
2019-03-12T07:12:52.345Z,4.02
2019-03-12T07:13:52.464Z,4.04
2019-03-12T07:14:52.341Z,4.04
2019-03-12T07:15:52.423Z,4.14
2019-03-12T07:16:52.291Z,4.20
2019-03-12T07:17:52.306Z,4.32
2019-03-12T07:18:53.891Z,4.43
2019-03-12T07:19:52.261Z,4.36
2019-03-12T07:20:53.395Z,4.34
2019-03-12T07:21:52.288Z,4.39
2019-03-12T07:22:53.039Z,4.43
2019-03-12T07:23:52.968Z,4.43
2019-03-12T07:24:52.205Z,4.53
2019-03-12T07:25:52.216Z,4.50
2019-03-12T07:26:52.218Z,4.43
2019-03-12T07:27:53.907Z,4.49
2019-03-12T07:28:52.228Z,4.48
2019-03-12T07:29:55.332Z,4.48
2019-03-12T07:30:54.903Z,4.49
2019-03-12T07:31:53.011Z,4.36
2019-03-12T07:32:52.242Z,4.36
2019-03-12T07:33:58.635Z,4.38
2019-03-12T07:34:53.385Z,4.46
2019-03-12T07:35:55.397Z,4.57
2019-03-12T07:36:53.412Z,4.45
2019-03-12T07:37:53.899Z,4.42
2019-03-12T07:38:52.912Z,4.40
2019-03-12T07:39:52.170Z,4.46
2019-03-12T07:40:53.012Z,4.46
2019-03-12T07:41:53.224Z,4.53
2019-03-12T07:42:54.568Z,4.53
2019-03-12T07:43:51.990Z,4.61
2019-03-12T07:44:52.211Z,4.43
2019-03-12T07:45:54.395Z,4.48
2019-03-12T07:46:52.176Z,4.50
2019-03-12T07:47:53.212Z,4.48
2019-03-12T07:48:51.992Z,4.46
2019-03-12T07:50:01.918Z,4.46
2019-03-12T07:50:52.924Z,4.48
2019-03-12T07:51:53.017Z,4.56
2019-03-12T07:52:53.012Z,4.66
2019-03-12T07:53:59.542Z,4.68
2019-03-12T07:54:52.861Z,4.67
2019-03-12T07:55:51.903Z,4.75
2019-03-12T07:56:53.350Z,4.75
2019-03-12T07:57:52.076Z,4.82
2019-03-12T07:58:53.204Z,4.79
2019-03-12T07:59:52.057Z,4.86
2019-03-12T08:00:51.947Z,4.79
2019-03-12T08:02:11.466Z,4.84
2019-03-12T08:02:51.930Z,4.84
2019-03-12T08:03:51.779Z,4.75
2019-03-12T08:04:51.766Z,4.82
2019-03-12T08:05:51.817Z,4.76
2019-03-12T08:06:51.779Z,4.83
2019-03-12T08:07:51.773Z,4.83
2019-03-12T08:08:51.761Z,4.90
2019-03-12T08:09:51.729Z,4.94
2019-03-12T08:10:51.724Z,4.90
2019-03-12T08:11:51.730Z,4.98
2019-03-12T08:12:52.440Z,5.07
2019-03-12T08:13:51.713Z,5.12
2019-03-12T08:14:51.667Z,5.18
2019-03-12T08:15:51.669Z,5.29
2019-03-12T08:16:51.790Z,5.31
2019-03-12T08:17:51.674Z,5.33
2019-03-12T08:18:51.646Z,5.34
2019-03-12T08:19:52.925Z,5.36
2019-03-12T08:20:55.153Z,5.37
2019-03-12T08:21:51.717Z,5.38
2019-03-12T08:22:51.607Z,5.47
2019-03-12T08:23:51.641Z,5.40
2019-03-12T08:24:51.562Z,5.52
2019-03-12T08:25:51.577Z,5.55
2019-03-12T08:26:51.605Z,5.55
2019-03-12T08:27:51.671Z,5.49
2019-03-12T08:28:51.650Z,5.69
2019-03-12T08:29:51.523Z,5.55
2019-03-12T08:30:51.511Z,5.54
2019-03-12T08:31:51.533Z,5.67
2019-03-12T08:32:51.532Z,5.70
2019-03-12T08:33:51.477Z,5.73
2019-03-12T08:34:52.059Z,5.69
2019-03-12T08:35:56.923Z,5.70
2019-03-12T08:36:51.983Z,5.80
2019-03-12T08:37:51.513Z,5.79
2019-03-12T08:38:54.633Z,5.73
2019-03-12T08:39:53.425Z,5.80
2019-03-12T08:40:52.744Z,5.83
2019-03-12T08:41:53.435Z,5.72
2019-03-12T08:42:54.781Z,5.80
2019-03-12T08:43:52.622Z,5.79
2019-03-12T08:44:51.454Z,5.80
2019-03-12T08:45:52.424Z,5.79
2019-03-12T08:46:51.359Z,5.84
2019-03-12T08:47:52.498Z,5.90
2019-03-12T08:48:51.339Z,5.95
2019-03-12T08:49:51.326Z,5.87
2019-03-12T08:50:51.311Z,5.88
2019-03-12T08:51:51.295Z,6.07
2019-03-12T08:52:51.284Z,6.19
2019-03-12T08:53:51.281Z,6.19
2019-03-12T08:54:54.532Z,6.19
2019-03-12T08:55:51.383Z,6.20
2019-03-12T08:56:52.445Z,6.35
2019-03-12T08:57:51.235Z,6.43
2019-03-12T08:58:51.217Z,6.38
2019-03-12T08:59:51.203Z,6.38
2019-03-12T09:00:51.927Z,6.52
2019-03-12T09:01:51.936Z,6.54
2019-03-12T09:02:51.933Z,6.54
2019-03-12T09:03:51.255Z,6.65
2019-03-12T09:04:51.325Z,6.68
2019-03-12T09:05:51.197Z,6.72
2019-03-12T09:06:52.008Z,6.71
2019-03-12T09:07:51.088Z,6.67
2019-03-12T09:08:51.559Z,6.62
2019-03-12T09:09:51.169Z,6.52
2019-03-12T09:10:51.171Z,6.47
2019-03-12T09:11:51.929Z,6.43
2019-03-12T09:12:51.073Z,6.49
2019-03-12T09:13:52.728Z,6.50
2019-03-12T09:14:51.931Z,6.68
2019-03-12T09:15:51.075Z,6.62
2019-03-12T09:16:51.025Z,6.65
2019-03-12T09:17:51.018Z,6.54
2019-03-12T09:18:52.029Z,6.49
2019-03-12T09:19:51.034Z,6.54
2019-03-12T09:20:50.980Z,6.53
2019-03-12T09:21:51.000Z,6.65
2019-03-12T09:22:50.942Z,6.68
2019-03-12T09:23:51.277Z,6.77
2019-03-12T09:24:50.971Z,6.87
2019-03-12T09:25:50.978Z,6.95
2019-03-12T09:26:50.955Z,6.83
2019-03-12T09:27:50.951Z,6.72
2019-03-12T09:28:50.895Z,6.74
2019-03-12T09:29:53.445Z,6.82
2019-03-12T09:30:52.941Z,6.95
2019-03-12T09:31:50.896Z,7.00
2019-03-12T09:32:50.957Z,7.15
2019-03-12T09:33:50.867Z,7.36
2019-03-12T09:34:51.631Z,7.64
2019-03-12T09:35:51.290Z,7.98
2019-03-12T09:36:52.795Z,8.16
2019-03-12T09:37:50.824Z,8.18
2019-03-12T09:38:51.588Z,8.20
2019-03-12T09:39:50.793Z,8.02
2019-03-12T09:40:50.767Z,8.05
2019-03-12T09:41:50.885Z,8.01
2019-03-12T09:42:50.781Z,8.02
2019-03-12T09:43:50.804Z,7.99
2019-03-12T09:44:50.740Z,7.83
2019-03-12T09:45:50.764Z,7.75
2019-03-12T09:46:50.762Z,7.70
2019-03-12T09:47:50.720Z,7.69
2019-03-12T09:48:50.674Z,7.87
2019-03-12T09:49:51.469Z,7.81
2019-03-12T09:50:50.653Z,7.72
2019-03-12T09:51:50.648Z,7.81
2019-03-12T09:52:50.645Z,7.75
2019-03-12T09:53:50.900Z,7.81
2019-03-12T09:54:51.547Z,7.93
2019-03-12T09:55:51.555Z,7.88
2019-03-12T09:56:51.489Z,7.83
2019-03-12T09:57:52.437Z,7.83
2019-03-12T09:58:51.606Z,7.88
2019-03-12T09:59:51.994Z,8.08
2019-03-12T10:00:53.460Z,8.27
2019-03-12T10:01:53.545Z,8.26
2019-03-12T10:02:50.548Z,8.35
2019-03-12T10:03:51.449Z,8.28
2019-03-12T10:04:51.946Z,8.26
2019-03-12T10:05:50.497Z,8.26
2019-03-12T10:06:50.523Z,8.23
2019-03-12T10:07:50.525Z,8.21
2019-03-12T10:08:50.448Z,8.11
2019-03-12T10:09:50.483Z,8.09
2019-03-12T10:10:50.457Z,8.20
2019-03-12T10:11:50.406Z,8.18
2019-03-12T10:12:50.438Z,8.26
2019-03-12T10:13:50.482Z,8.20
2019-03-12T10:14:52.290Z,8.13
2019-03-12T10:15:50.941Z,8.26
2019-03-12T10:16:50.450Z,8.14
2019-03-12T10:17:50.498Z,8.23
2019-03-12T10:18:50.523Z,8.18
2019-03-12T10:19:51.947Z,8.18
2019-03-12T10:20:50.396Z,8.27
2019-03-12T10:21:51.050Z,8.41
2019-03-12T10:22:52.473Z,8.41
2019-03-12T10:23:50.331Z,8.49
2019-03-12T10:24:50.333Z,8.41
2019-03-12T10:25:50.371Z,8.46
2019-03-12T10:26:50.387Z,8.54
2019-03-12T10:27:50.273Z,8.61
2019-03-12T10:28:50.274Z,8.75
2019-03-12T10:29:50.284Z,8.97
2019-03-12T10:30:50.313Z,9.16
2019-03-12T10:31:51.023Z,9.34
2019-03-12T10:32:50.206Z,9.15
2019-03-12T10:33:50.241Z,9.15
2019-03-12T10:34:50.280Z,9.16
2019-03-12T10:35:50.786Z,8.99
2019-03-12T10:36:50.272Z,9.26
2019-03-12T10:37:52.951Z,9.13
2019-03-12T10:38:50.165Z,9.31
2019-03-12T10:39:50.137Z,9.16
2019-03-12T10:40:50.244Z,9.45
2019-03-12T10:41:50.152Z,9.52
2019-03-12T10:42:50.128Z,9.30
2019-03-12T10:43:50.221Z,9.13
2019-03-12T10:44:52.012Z,9.12
2019-03-12T10:45:50.074Z,8.99
2019-03-12T10:46:50.080Z,8.84
2019-03-12T10:47:50.048Z,9.05
2019-03-12T10:48:50.070Z,8.92
2019-03-12T10:49:51.486Z,8.84
2019-03-12T10:50:51.508Z,8.82
2019-03-12T10:51:50.950Z,8.81
2019-03-12T10:52:51.113Z,8.90
2019-03-12T10:53:51.063Z,8.86
2019-03-12T10:54:50.054Z,8.74
2019-03-12T10:55:49.997Z,8.63
2019-03-12T10:56:50.904Z,8.59
2019-03-12T10:57:50.066Z,8.60
2019-03-12T10:58:50.067Z,8.44
2019-03-12T10:59:49.984Z,8.38
2019-03-12T11:00:49.927Z,8.31
2019-03-12T11:01:49.992Z,8.38
2019-03-12T11:02:50.026Z,8.45
2019-03-12T11:03:50.060Z,8.66
2019-03-12T11:04:50.548Z,8.68
2019-03-12T11:05:49.875Z,8.66
2019-03-12T11:06:49.939Z,8.66
2019-03-12T11:07:50.587Z,8.78
2019-03-12T11:08:50.968Z,8.92
2019-03-12T11:09:49.846Z,8.87
2019-03-12T11:10:50.468Z,8.72
2019-03-12T11:11:49.879Z,8.60
2019-03-12T11:12:50.955Z,8.61
2019-03-12T11:13:50.464Z,8.63
2019-03-12T11:14:49.847Z,8.49
2019-03-12T11:15:49.762Z,8.56
2019-03-12T11:16:49.782Z,8.42
2019-03-12T11:17:50.468Z,8.41
2019-03-12T11:18:49.800Z,8.31
2019-03-12T11:19:49.727Z,8.27
2019-03-12T11:20:49.725Z,8.35
2019-03-12T11:21:49.725Z,8.31
2019-03-12T11:22:49.715Z,8.23
2019-03-12T11:23:50.092Z,8.16
2019-03-12T11:24:49.650Z,8.28
2019-03-12T11:25:49.730Z,8.27
2019-03-12T11:26:49.674Z,8.24
2019-03-12T11:27:49.640Z,8.27
2019-03-12T11:28:49.779Z,8.26
2019-03-12T11:29:49.638Z,8.27
2019-03-12T11:30:49.587Z,8.24
2019-03-12T11:31:49.609Z,8.23
2019-03-12T11:32:50.475Z,8.27
2019-03-12T11:33:49.577Z,8.27
2019-03-12T11:34:49.557Z,8.41
2019-03-12T11:35:49.534Z,8.61
2019-03-12T11:36:49.526Z,8.64
2019-03-12T11:37:49.643Z,8.71
2019-03-12T11:38:49.679Z,8.78
2019-03-12T11:39:49.561Z,8.84
2019-03-12T11:40:49.518Z,9.00
2019-03-12T11:41:49.538Z,9.19
2019-03-12T11:42:49.512Z,9.34
2019-03-12T11:43:49.650Z,9.56
2019-03-12T11:44:49.639Z,9.72
2019-03-12T11:45:49.512Z,9.62
2019-03-12T11:46:49.524Z,9.54
2019-03-12T11:47:49.522Z,9.51
2019-03-12T11:48:49.969Z,9.49
2019-03-12T11:49:50.465Z,9.48
2019-03-12T11:50:49.407Z,9.51
2019-03-12T11:51:49.376Z,9.56
2019-03-12T11:52:56.003Z,9.76
2019-03-12T11:53:50.330Z,9.95
2019-03-12T11:54:50.049Z,10.12
2019-03-12T11:55:49.409Z,10.24
2019-03-12T11:56:49.607Z,10.36
2019-03-12T11:57:50.085Z,10.49
2019-03-12T11:58:50.056Z,10.42
2019-03-12T11:59:49.569Z,10.39
2019-03-12T12:00:49.338Z,10.38
2019-03-12T12:01:49.499Z,10.62
2019-03-12T12:02:59.383Z,10.55
2019-03-12T12:03:51.034Z,10.51
2019-03-12T12:04:49.894Z,10.58
2019-03-12T12:05:50.967Z,10.49
2019-03-12T12:06:50.046Z,10.53
2019-03-12T12:07:49.305Z,10.53
2019-03-12T12:08:50.077Z,10.62
2019-03-12T12:09:49.427Z,10.65
2019-03-12T12:10:49.215Z,10.64
2019-03-12T12:11:49.193Z,10.72
2019-03-12T12:12:49.167Z,10.87
2019-03-12T12:13:49.225Z,10.95
2019-03-12T12:14:49.127Z,10.83
2019-03-12T12:15:49.243Z,10.72
2019-03-12T12:16:49.133Z,10.67
2019-03-12T12:17:49.466Z,10.61
2019-03-12T12:18:49.153Z,10.67
2019-03-12T12:19:49.289Z,10.64
2019-03-12T12:20:49.073Z,10.61
2019-03-12T12:21:49.105Z,10.62
2019-03-12T12:22:49.028Z,10.53
2019-03-12T12:23:49.122Z,10.62
2019-03-12T12:24:49.048Z,10.82
2019-03-12T12:25:49.032Z,10.89
2019-03-12T12:26:50.476Z,10.98
2019-03-12T12:27:49.014Z,11.02
2019-03-12T12:28:48.960Z,11.16
2019-03-12T12:29:48.958Z,11.23
2019-03-12T12:30:48.993Z,11.22
2019-03-12T12:31:48.987Z,11.26
2019-03-12T12:32:49.142Z,11.33
2019-03-12T12:33:48.914Z,11.10
2019-03-12T12:34:48.955Z,10.97
2019-03-12T12:35:48.919Z,10.94
2019-03-12T12:36:49.470Z,10.92
2019-03-12T12:37:48.854Z,10.95
2019-03-12T12:38:48.843Z,10.84
2019-03-12T12:39:49.035Z,10.84
2019-03-12T12:40:48.837Z,11.07
2019-03-12T12:41:48.830Z,11.13
2019-03-12T12:42:48.820Z,11.34
2019-03-12T12:43:49.215Z,11.67
2019-03-12T12:44:48.784Z,12.36
2019-03-12T12:45:48.765Z,13.02
2019-03-12T12:46:48.791Z,13.49
2019-03-12T12:47:48.827Z,13.85
2019-03-12T12:48:48.821Z,14.20
2019-03-12T12:49:48.817Z,14.36
2019-03-12T12:51:01.897Z,14.38
2019-03-12T12:51:49.719Z,14.34
2019-03-12T12:52:48.781Z,14.28
2019-03-12T12:53:48.685Z,14.26
2019-03-12T12:54:48.766Z,14.58
2019-03-12T12:55:48.814Z,14.58
2019-03-12T12:56:48.673Z,14.62
2019-03-12T12:57:48.683Z,14.30
2019-03-12T12:58:48.667Z,14.51
2019-03-12T12:59:48.635Z,14.43
2019-03-12T13:00:48.776Z,14.45
2019-03-12T13:01:48.624Z,14.44
2019-03-12T13:02:48.652Z,14.33
2019-03-12T13:03:48.591Z,14.45
2019-03-12T13:04:48.574Z,14.23
2019-03-12T13:05:48.751Z,13.75
2019-03-12T13:06:48.658Z,13.70
2019-03-12T13:07:48.571Z,13.71
2019-03-12T13:08:48.555Z,13.65
2019-03-12T13:09:48.543Z,13.85
2019-03-12T13:10:49.481Z,13.87
2019-03-12T13:11:48.660Z,13.98
2019-03-12T13:12:48.616Z,13.97
2019-03-12T13:13:49.491Z,13.93
2019-03-12T13:14:48.546Z,13.55
2019-03-12T13:15:48.578Z,13.36